createdAt,value
2018-07-03T00:00:39.319Z,85.40
2018-07-03T00:03:07.977Z,85.40
2018-07-03T00:05:36.579Z,85.20
2018-07-03T00:08:05.204Z,86.10
2018-07-03T00:10:33.808Z,85.70
2018-07-03T00:13:02.412Z,85.70
2018-07-03T00:15:30.969Z,85.60
2018-07-03T00:17:59.561Z,85.80
2018-07-03T00:20:28.164Z,86.00
2018-07-03T00:22:56.747Z,86.40
2018-07-03T00:25:25.321Z,87.10
2018-07-03T00:27:53.933Z,87.10
2018-07-03T00:30:22.527Z,86.50
2018-07-03T00:32:51.112Z,86.70
2018-07-03T00:35:19.734Z,86.60
2018-07-03T00:37:48.334Z,86.50
2018-07-03T00:40:16.932Z,86.20
2018-07-03T00:42:45.858Z,86.70
2018-07-03T00:47:42.690Z,86.70
2018-07-03T00:50:11.252Z,86.40
2018-07-03T00:52:39.843Z,86.50
2018-07-03T00:55:08.404Z,86.70
2018-07-03T00:57:37.025Z,86.80
2018-07-03T01:00:16.649Z,87.00
2018-07-03T01:02:45.232Z,87.20
2018-07-03T01:05:13.866Z,86.80
2018-07-03T01:07:42.501Z,87.00
2018-07-03T01:10:11.046Z,87.30
2018-07-03T01:12:39.665Z,87.00
2018-07-03T01:15:08.257Z,87.00
2018-07-03T01:17:36.864Z,86.90
2018-07-03T01:20:05.477Z,87.10
2018-07-03T01:22:34.089Z,87.10
2018-07-03T01:25:02.673Z,87.10
2018-07-03T01:27:31.251Z,87.20
2018-07-03T01:30:00.745Z,87.40
2018-07-03T01:32:29.397Z,87.30
2018-07-03T01:34:57.968Z,87.00
2018-07-03T01:37:26.569Z,86.70
2018-07-03T01:39:55.204Z,86.70
2018-07-03T01:42:23.811Z,86.90
2018-07-03T01:44:52.476Z,86.70
2018-07-03T01:47:21.093Z,86.70
2018-07-03T01:49:49.719Z,87.00
2018-07-03T01:52:18.304Z,88.20
2018-07-03T01:54:46.907Z,87.20
2018-07-03T01:57:15.509Z,88.10
2018-07-03T01:59:44.108Z,87.20
2018-07-03T02:02:12.743Z,87.40
2018-07-03T02:04:41.436Z,87.40
2018-07-03T02:07:10.040Z,87.00
2018-07-03T02:09:38.635Z,87.40
2018-07-03T02:12:07.253Z,87.30
2018-07-03T02:14:35.842Z,87.50
2018-07-03T02:17:04.707Z,87.70
2018-07-03T02:19:33.295Z,88.10
2018-07-03T02:22:01.953Z,87.60
2018-07-03T02:24:30.571Z,87.50
2018-07-03T02:26:59.211Z,87.70
2018-07-03T02:29:27.789Z,88.40
2018-07-03T02:31:56.388Z,88.10
2018-07-03T02:34:24.965Z,88.30
2018-07-03T02:36:53.653Z,88.50
2018-07-03T02:39:22.307Z,88.70
2018-07-03T02:41:50.923Z,88.80
2018-07-03T02:44:19.625Z,88.90
2018-07-03T02:46:48.216Z,89.10
2018-07-03T02:49:16.804Z,88.90
2018-07-03T02:51:45.382Z,89.10
2018-07-03T02:54:13.977Z,88.70
2018-07-03T02:56:42.564Z,89.20
2018-07-03T02:59:11.118Z,88.80
2018-07-03T03:01:39.699Z,88.70
2018-07-03T03:04:08.280Z,89.60
2018-07-03T03:06:36.869Z,89.20
2018-07-03T03:09:08.645Z,89.60
2018-07-03T03:11:37.284Z,89.40
2018-07-03T03:14:05.898Z,89.30
2018-07-03T03:16:34.530Z,89.70
2018-07-03T03:19:03.113Z,89.90
2018-07-03T03:21:31.705Z,89.40
2018-07-03T03:24:00.293Z,88.70
2018-07-03T03:26:28.922Z,88.70
2018-07-03T03:28:57.502Z,88.90
2018-07-03T03:31:26.145Z,89.20
2018-07-03T03:33:54.735Z,88.80
2018-07-03T03:36:23.318Z,89.40
2018-07-03T03:38:51.900Z,89.60
2018-07-03T03:41:20.475Z,90.00
2018-07-03T03:43:49.069Z,90.00
2018-07-03T03:46:17.667Z,90.20
2018-07-03T03:48:46.281Z,90.00
2018-07-03T03:51:14.876Z,90.00
2018-07-03T03:53:43.507Z,89.50
2018-07-03T03:58:40.300Z,89.10
2018-07-03T04:01:08.925Z,88.80
2018-07-03T04:03:37.504Z,89.40
2018-07-03T04:06:06.121Z,89.70
2018-07-03T04:08:34.728Z,90.10
2018-07-03T04:11:03.285Z,89.60
2018-07-03T04:13:31.853Z,89.40
2018-07-03T04:16:00.427Z,89.90
2018-07-03T04:18:32.246Z,89.80
2018-07-03T04:21:01.589Z,89.80
2018-07-03T04:23:30.276Z,89.70
2018-07-03T04:25:59.442Z,90.20
2018-07-03T04:28:28.052Z,90.10
2018-07-03T04:30:56.656Z,90.70
2018-07-03T04:33:25.221Z,91.20
2018-07-03T04:35:53.769Z,91.30
2018-07-03T04:38:22.344Z,91.00
2018-07-03T04:40:50.904Z,90.90
2018-07-03T04:43:19.633Z,90.80
2018-07-03T04:45:48.205Z,91.10
2018-07-03T04:48:16.785Z,90.70
2018-07-03T04:50:46.704Z,91.10
2018-07-03T04:53:15.279Z,90.80
2018-07-03T04:55:43.865Z,90.20
2018-07-03T04:58:12.397Z,90.60
2018-07-03T05:00:41.010Z,90.30
2018-07-03T05:05:37.808Z,90.20
2018-07-03T05:08:06.429Z,89.80
2018-07-03T05:10:35.075Z,89.90
2018-07-03T05:13:03.641Z,90.30
2018-07-03T05:15:32.234Z,89.80
2018-07-03T05:18:00.864Z,90.10
2018-07-03T05:20:29.537Z,89.80
2018-07-03T05:22:58.081Z,89.80
2018-07-03T05:25:26.676Z,90.30
2018-07-03T05:27:55.233Z,90.20
2018-07-03T05:30:23.848Z,90.60
2018-07-03T05:32:52.416Z,90.10
2018-07-03T05:35:21.000Z,89.60
2018-07-03T05:37:49.618Z,90.10
2018-07-03T05:40:18.248Z,89.40
2018-07-03T05:42:46.845Z,89.70
2018-07-03T05:45:15.417Z,89.20
2018-07-03T05:47:44.006Z,89.80
2018-07-03T05:50:12.577Z,90.10
2018-07-03T05:52:41.157Z,89.00
2018-07-03T05:55:09.725Z,88.80
2018-07-03T05:57:38.304Z,88.10
2018-07-03T06:00:07.108Z,87.90
2018-07-03T06:02:35.686Z,88.30
2018-07-03T06:05:04.506Z,87.20
2018-07-03T06:07:32.905Z,84.30
2018-07-03T06:10:01.525Z,82.50
2018-07-03T06:12:30.109Z,81.20
2018-07-03T06:14:58.707Z,80.00
2018-07-03T06:17:27.312Z,78.00
2018-07-03T06:19:55.875Z,77.60
2018-07-03T06:22:24.479Z,77.00
2018-07-03T06:24:53.071Z,75.90
2018-07-03T06:27:21.700Z,75.70
2018-07-03T06:29:50.300Z,75.80
2018-07-03T06:54:22.864Z,81.70
2018-07-03T06:56:51.728Z,82.30
2018-07-03T06:59:20.336Z,83.90
2018-07-03T07:01:48.917Z,83.90
2018-07-03T07:04:17.519Z,84.60
2018-07-03T07:06:46.087Z,85.90
2018-07-03T07:09:14.880Z,85.00
2018-07-03T07:11:43.293Z,86.00
2018-07-03T07:14:12.024Z,85.50
2018-07-03T07:16:40.700Z,81.90
2018-07-03T07:19:09.396Z,80.20
2018-07-03T07:21:38.016Z,81.00
2018-07-03T07:24:06.640Z,81.90
2018-07-03T07:26:35.204Z,85.40
2018-07-03T07:29:03.811Z,87.40
2018-07-03T07:31:32.391Z,85.90
2018-07-03T07:34:00.993Z,83.20
2018-07-03T07:36:29.564Z,81.90
2018-07-03T07:38:58.143Z,86.30
2018-07-03T07:41:26.724Z,80.70
2018-07-03T07:43:55.261Z,82.70
2018-07-03T07:46:23.847Z,81.40
2018-07-03T07:48:52.411Z,82.60
2018-07-03T07:51:21.048Z,80.60
2018-07-03T07:53:49.649Z,82.70
2018-07-03T07:56:18.249Z,80.90
2018-07-03T07:58:46.828Z,82.40
2018-07-03T08:01:15.417Z,88.80
2018-07-03T08:03:44.079Z,84.70
2018-07-03T08:06:12.640Z,87.40
2018-07-03T08:08:41.236Z,80.40
2018-07-03T08:11:09.917Z,79.10
2018-07-03T08:13:38.619Z,78.10
2018-07-03T08:16:07.258Z,79.50
2018-07-03T08:18:35.847Z,80.90
2018-07-03T08:21:04.445Z,79.00
2018-07-03T08:23:33.036Z,89.00
2018-07-03T08:26:01.624Z,77.00
2018-07-03T08:28:30.201Z,77.70
2018-07-03T08:30:58.817Z,79.50
2018-07-03T08:33:27.434Z,81.60
2018-07-03T08:35:56.065Z,80.80
2018-07-03T08:38:24.659Z,80.00
2018-07-03T08:40:53.272Z,78.20
2018-07-03T08:43:21.830Z,77.50
2018-07-03T08:45:50.443Z,82.40
2018-07-03T08:48:19.075Z,79.30
2018-07-03T08:50:47.694Z,83.50
2018-07-03T08:53:16.275Z,75.80
2018-07-03T08:55:44.861Z,75.50
2018-07-03T08:58:13.473Z,74.80
2018-07-03T09:00:42.064Z,80.60
2018-07-03T09:03:10.739Z,79.00
2018-07-03T09:05:39.345Z,77.00
2018-07-03T09:08:08.013Z,77.10
2018-07-03T09:10:36.591Z,80.30
2018-07-03T09:13:05.216Z,78.30
2018-07-03T09:15:33.773Z,76.90
2018-07-03T09:18:02.445Z,75.20
2018-07-03T09:20:30.951Z,73.90
2018-07-03T09:22:59.551Z,74.40
2018-07-03T09:25:28.134Z,75.30
2018-07-03T09:27:56.718Z,73.70
2018-07-03T09:30:25.315Z,73.70
2018-07-03T09:32:53.912Z,73.70
2018-07-03T09:35:22.467Z,71.30
2018-07-03T09:37:51.109Z,73.90
2018-07-03T09:40:19.665Z,74.40
2018-07-03T09:42:48.280Z,78.30
2018-07-03T09:45:16.856Z,74.30
2018-07-03T09:47:45.445Z,81.80
2018-07-03T09:50:14.059Z,78.90
2018-07-03T09:52:42.635Z,71.90
2018-07-03T09:55:11.211Z,77.70
2018-07-03T09:57:39.837Z,76.70
2018-07-03T10:00:08.791Z,73.20
2018-07-03T10:02:37.357Z,76.30
2018-07-03T10:05:06.093Z,74.40
2018-07-03T10:07:34.707Z,74.00
2018-07-03T10:10:03.384Z,75.40
2018-07-03T10:12:31.951Z,74.60
2018-07-03T10:15:00.579Z,75.50
2018-07-03T10:17:29.237Z,72.50
2018-07-03T10:19:57.892Z,71.10
2018-07-03T10:22:26.472Z,78.20
2018-07-03T10:24:55.093Z,76.30
2018-07-03T10:27:23.701Z,78.30
2018-07-03T10:29:52.285Z,72.90
2018-07-03T10:32:20.875Z,75.60
2018-07-03T10:34:49.469Z,76.40
2018-07-03T10:37:18.101Z,73.60
2018-07-03T10:39:46.708Z,73.90
2018-07-03T10:42:15.267Z,70.70
2018-07-03T10:44:43.876Z,69.30
2018-07-03T10:47:12.508Z,71.50
2018-07-03T10:49:41.115Z,77.70
2018-07-03T10:52:09.700Z,80.90
2018-07-03T10:57:06.561Z,78.90
2018-07-03T10:59:35.230Z,81.60
2018-07-03T11:02:03.904Z,76.20
2018-07-03T11:04:32.529Z,76.70
2018-07-03T11:07:01.096Z,73.60
2018-07-03T11:11:57.980Z,76.60
2018-07-03T11:14:26.620Z,72.80
2018-07-03T11:16:55.221Z,70.50
2018-07-03T11:19:23.820Z,77.10
2018-07-03T11:21:52.441Z,78.10
2018-07-03T11:24:21.123Z,75.30
2018-07-03T11:26:49.773Z,70.80
2018-07-03T11:31:46.759Z,77.10
2018-07-03T11:34:15.345Z,77.50
2018-07-03T11:36:44.616Z,78.80
2018-07-03T11:39:13.538Z,81.70
2018-07-03T11:41:42.149Z,77.90
2018-07-03T11:44:10.711Z,75.60
2018-07-03T11:46:39.328Z,71.10
2018-07-03T11:49:07.900Z,71.50
2018-07-03T11:51:36.484Z,70.90
2018-07-03T11:54:05.064Z,72.10
2018-07-03T11:56:33.716Z,70.70
2018-07-03T11:59:02.320Z,66.90
2018-07-03T12:01:31.079Z,66.40
2018-07-03T12:03:59.627Z,66.00
2018-07-03T12:06:28.262Z,67.70
2018-07-03T12:08:56.870Z,68.10
2018-07-03T12:11:25.476Z,73.60
2018-07-03T12:13:54.187Z,70.80
2018-07-03T12:16:22.773Z,68.20
2018-07-03T12:18:56.731Z,71.30
2018-07-03T12:21:25.361Z,71.10
2018-07-03T12:23:53.989Z,71.80
2018-07-03T12:26:22.598Z,68.10
2018-07-03T12:28:51.300Z,68.80
2018-07-03T12:31:19.933Z,67.20
2018-07-03T12:33:48.547Z,66.30
2018-07-03T12:36:17.131Z,67.40
2018-07-03T12:38:45.748Z,69.20
2018-07-03T12:41:14.386Z,74.20
2018-07-03T12:43:43.205Z,73.30
2018-07-03T12:46:12.490Z,70.30
2018-07-03T12:48:41.456Z,67.90
2018-07-03T12:51:10.072Z,68.80
2018-07-03T12:53:39.055Z,68.10
2018-07-03T12:56:07.633Z,72.50
2018-07-03T12:58:36.288Z,69.50
2018-07-03T13:01:04.976Z,70.60
2018-07-03T13:03:33.684Z,67.50
2018-07-03T13:06:02.312Z,69.90
2018-07-03T13:08:30.952Z,67.90
2018-07-03T13:10:59.625Z,67.90
2018-07-03T13:13:28.229Z,68.60
2018-07-03T13:15:56.927Z,74.90
2018-07-03T13:18:25.538Z,69.30
2018-07-03T13:20:54.994Z,71.70
2018-07-03T13:23:24.982Z,65.90
2018-07-03T13:25:53.792Z,66.60
2018-07-03T13:28:22.405Z,67.30
2018-07-03T13:30:51.080Z,69.30
2018-07-03T13:33:19.697Z,72.90
2018-07-03T13:35:48.334Z,67.00
2018-07-03T13:38:16.945Z,71.30
2018-07-03T13:40:45.609Z,67.90
2018-07-03T13:43:14.272Z,72.90
2018-07-03T13:45:42.937Z,74.90
2018-07-03T13:48:11.573Z,74.20
2018-07-03T13:50:40.179Z,75.50
2018-07-03T13:53:08.854Z,75.50
2018-07-03T13:55:37.488Z,72.70
2018-07-03T13:58:06.572Z,77.60
2018-07-03T14:00:35.148Z,71.40
2018-07-03T14:03:03.732Z,69.50
2018-07-03T14:05:32.345Z,77.40
2018-07-03T14:08:00.891Z,76.40
2018-07-03T14:10:29.525Z,74.60
2018-07-03T14:12:58.119Z,76.50
2018-07-03T14:15:26.700Z,75.80
2018-07-03T14:17:55.673Z,71.40
2018-07-03T14:20:24.269Z,70.70
2018-07-03T14:22:52.923Z,73.20
2018-07-03T14:25:21.488Z,71.50
2018-07-03T14:27:50.072Z,71.20
2018-07-03T14:30:18.988Z,70.40
2018-07-03T14:32:47.607Z,70.70
2018-07-03T14:37:44.541Z,72.40
2018-07-03T14:40:13.116Z,67.90
2018-07-03T14:42:41.776Z,63.80
2018-07-03T14:45:10.422Z,63.10
2018-07-03T14:47:39.052Z,63.40
2018-07-03T14:50:07.679Z,65.10
2018-07-03T14:52:36.275Z,62.60
2018-07-03T14:57:33.109Z,62.90
2018-07-03T15:00:01.693Z,63.30
2018-07-03T15:02:30.381Z,63.40
2018-07-03T15:04:58.991Z,64.00
2018-07-03T15:07:27.562Z,63.80
2018-07-03T15:09:56.234Z,65.20
2018-07-03T15:12:24.789Z,63.40
2018-07-03T15:14:53.497Z,66.10
2018-07-03T15:17:22.036Z,65.70
2018-07-03T15:19:57.913Z,65.30
2018-07-03T15:22:26.504Z,64.30
2018-07-03T15:24:55.103Z,65.40
2018-07-03T15:27:23.665Z,64.40
2018-07-03T15:29:52.258Z,64.50
2018-07-03T15:32:20.817Z,64.00
2018-07-03T15:34:49.450Z,67.80
2018-07-03T15:37:18.102Z,64.40
2018-07-03T15:39:46.715Z,63.60
2018-07-03T15:42:15.338Z,63.60
2018-07-03T15:45:16.081Z,65.90
2018-07-03T15:47:44.684Z,64.40
2018-07-03T15:50:13.972Z,64.80
2018-07-03T15:52:42.602Z,65.60
2018-07-03T15:55:11.616Z,71.90
2018-07-03T15:57:40.198Z,64.20
2018-07-03T16:00:10.785Z,66.20
2018-07-03T16:02:43.528Z,68.50
2018-07-03T16:05:54.816Z,63.30
2018-07-03T16:08:34.708Z,63.60
2018-07-03T16:11:03.317Z,62.00
2018-07-03T16:13:31.873Z,61.80
2018-07-03T16:16:00.510Z,62.20
2018-07-03T16:18:29.085Z,62.50
2018-07-03T16:20:57.689Z,64.90
2018-07-03T16:23:26.244Z,63.80
2018-07-03T16:25:54.890Z,65.90
2018-07-03T16:28:23.450Z,61.60
2018-07-03T16:30:52.028Z,63.80
2018-07-03T16:33:20.625Z,61.40
2018-07-03T16:35:49.229Z,57.80
2018-07-03T16:38:17.828Z,59.00
2018-07-03T16:40:46.412Z,58.60
2018-07-03T16:43:14.971Z,58.90
2018-07-03T16:45:43.590Z,60.60
2018-07-03T16:48:12.211Z,59.30
2018-07-03T16:50:40.855Z,60.30
2018-07-03T16:53:09.402Z,60.80
2018-07-03T16:55:37.996Z,58.80
2018-07-03T16:58:06.595Z,58.60
2018-07-03T17:00:35.216Z,61.70
2018-07-03T17:03:03.810Z,60.20
2018-07-03T17:05:32.448Z,60.30
2018-07-03T17:08:01.021Z,63.50
2018-07-03T17:10:29.629Z,62.10
2018-07-03T17:12:58.231Z,62.40
2018-07-03T17:15:26.820Z,63.20
2018-07-03T17:17:55.440Z,63.90
2018-07-03T17:20:24.047Z,64.70
2018-07-03T17:22:52.697Z,62.80
2018-07-03T17:25:21.327Z,65.20
2018-07-03T17:27:49.913Z,66.40
2018-07-03T17:30:18.681Z,65.00
2018-07-03T17:32:47.274Z,65.70
2018-07-03T17:35:15.820Z,66.40
2018-07-03T17:37:44.413Z,65.30
2018-07-03T17:40:24.209Z,64.80
2018-07-03T17:44:07.364Z,64.00
2018-07-03T17:46:36.022Z,63.40
2018-07-03T17:49:05.058Z,66.90
2018-07-03T17:51:33.813Z,68.50
2018-07-03T17:54:02.400Z,68.10
2018-07-03T17:56:31.556Z,67.70
2018-07-03T17:59:00.385Z,69.10
2018-07-03T18:01:28.950Z,69.70
2018-07-03T18:03:57.509Z,71.00
2018-07-03T18:06:26.111Z,71.60
2018-07-03T18:08:54.787Z,75.50
2018-07-03T18:11:23.446Z,75.80
2018-07-03T18:13:52.859Z,76.70
2018-07-03T18:16:21.448Z,77.30
2018-07-03T18:18:55.364Z,77.80
2018-07-03T18:21:23.974Z,78.00
2018-07-03T18:23:52.611Z,78.60
2018-07-03T18:26:21.306Z,79.20
2018-07-03T18:28:49.911Z,81.30
2018-07-03T18:31:18.621Z,82.20
2018-07-03T18:33:47.244Z,82.90
2018-07-03T18:36:15.819Z,80.60
2018-07-03T18:38:45.009Z,80.50
2018-07-03T18:41:13.604Z,81.70
2018-07-03T18:43:42.329Z,81.70
2018-07-03T18:46:10.948Z,80.80
2018-07-03T18:48:39.580Z,80.60
2018-07-03T18:51:08.438Z,81.40
2018-07-03T18:53:37.365Z,80.20
2018-07-03T18:58:34.506Z,80.60
2018-07-03T19:01:03.188Z,80.80
2018-07-03T19:03:31.851Z,80.90
2018-07-03T19:06:00.445Z,80.60
2018-07-03T19:08:29.036Z,80.80
2018-07-03T19:10:57.700Z,81.00
2018-07-03T19:13:26.277Z,81.40
2018-07-03T19:15:54.878Z,81.90
2018-07-03T19:18:23.501Z,82.10
2018-07-03T19:20:52.122Z,82.70
2018-07-03T19:23:20.902Z,82.20
2018-07-03T19:25:49.526Z,82.30
2018-07-03T19:28:18.089Z,82.30
2018-07-03T19:30:46.704Z,82.00
2018-07-03T19:33:16.290Z,82.60
2018-07-03T19:35:45.173Z,82.40
2018-07-03T19:38:13.768Z,82.50
2018-07-03T19:40:42.452Z,82.90
2018-07-03T19:43:21.528Z,83.30
2018-07-03T19:45:51.362Z,83.70
2018-07-03T19:50:49.784Z,84.30
2018-07-03T19:53:18.392Z,83.80
2018-07-03T19:55:48.355Z,83.60
2018-07-03T19:58:17.219Z,84.00
2018-07-03T20:00:47.153Z,84.30
2018-07-03T20:05:44.026Z,85.20
2018-07-03T20:10:40.937Z,85.10
2018-07-03T20:13:11.864Z,85.10
2018-07-03T20:15:40.505Z,85.80
2018-07-03T20:18:10.341Z,86.30
2018-07-03T20:20:39.005Z,86.90
2018-07-03T20:23:07.584Z,90.20
2018-07-03T20:25:37.004Z,90.50
2018-07-03T20:28:05.952Z,91.10
2018-07-03T20:30:34.923Z,91.50
2018-07-03T20:33:03.583Z,90.30
2018-07-03T20:35:32.206Z,89.90
2018-07-03T20:38:02.185Z,89.70
2018-07-03T20:40:50.928Z,90.80
2018-07-03T20:43:19.736Z,91.60
2018-07-03T20:45:48.326Z,91.70
2018-07-03T20:48:16.933Z,91.70
2018-07-03T20:50:45.579Z,91.90
2018-07-03T20:53:14.185Z,91.80
2018-07-03T20:55:42.963Z,91.80
2018-07-03T20:58:11.596Z,91.90
2018-07-03T21:00:40.243Z,91.60
2018-07-03T21:03:09.009Z,91.70
2018-07-03T21:05:37.594Z,92.40
2018-07-03T21:08:06.436Z,92.60
2018-07-03T21:10:35.102Z,92.90
2018-07-03T21:13:03.692Z,92.30
2018-07-03T21:15:33.458Z,92.10
2018-07-03T21:18:02.037Z,92.20
2018-07-03T21:20:30.613Z,92.70
2018-07-03T21:22:59.212Z,93.60
2018-07-03T21:27:56.003Z,93.60
2018-07-03T21:30:24.560Z,93.90
2018-07-03T21:35:21.365Z,93.80
2018-07-03T21:37:49.980Z,93.00
2018-07-03T21:40:18.517Z,93.20
2018-07-03T21:42:47.133Z,93.50
2018-07-03T21:45:16.662Z,93.80
2018-07-03T21:47:45.291Z,93.70
2018-07-03T21:50:13.952Z,93.70
2018-07-03T21:52:42.492Z,93.60
2018-07-03T21:55:11.330Z,93.30
2018-07-03T21:57:39.884Z,93.60
2018-07-03T22:00:09.962Z,93.80
2018-07-03T22:02:45.082Z,94.00
2018-07-03T22:05:13.698Z,94.20
2018-07-03T22:07:42.265Z,94.30
2018-07-03T22:10:12.853Z,94.80
2018-07-03T22:12:41.459Z,94.90
2018-07-03T22:15:10.073Z,95.60
2018-07-03T22:17:38.725Z,95.70
2018-07-03T22:20:07.331Z,96.00
2018-07-03T22:22:35.916Z,95.80
2018-07-03T22:25:04.558Z,94.90
2018-07-03T22:27:33.246Z,95.50
2018-07-03T22:32:32.025Z,95.30
2018-07-03T22:35:00.670Z,95.60
2018-07-03T22:37:29.262Z,95.60
2018-07-03T22:39:57.876Z,96.00
2018-07-03T22:42:26.453Z,96.70
2018-07-03T22:45:01.820Z,97.00
2018-07-03T22:47:30.428Z,97.30
2018-07-03T22:49:59.884Z,97.60
2018-07-03T22:52:28.458Z,97.90
2018-07-03T22:54:57.967Z,97.90
2018-07-03T22:57:26.528Z,98.10
2018-07-03T22:59:55.206Z,98.30
2018-07-03T23:02:24.159Z,98.30
2018-07-03T23:04:52.818Z,98.10
2018-07-03T23:07:22.381Z,98.40
2018-07-03T23:09:51.029Z,98.70
2018-07-03T23:12:20.439Z,98.70
2018-07-03T23:14:50.852Z,98.00
2018-07-03T23:17:19.479Z,97.70
2018-07-03T23:19:48.950Z,97.80
2018-07-03T23:22:17.672Z,97.70
2018-07-03T23:24:46.244Z,97.50
2018-07-03T23:27:15.749Z,97.60
2018-07-03T23:29:44.369Z,97.50
2018-07-03T23:32:13.212Z,97.80
2018-07-03T23:34:42.322Z,98.00
2018-07-03T23:37:11.297Z,98.00
2018-07-03T23:39:39.915Z,98.00
2018-07-03T23:42:08.513Z,98.30
2018-07-03T23:44:37.097Z,98.40
2018-07-03T23:47:16.992Z,99.50
2018-07-03T23:49:56.841Z,99.20
2018-07-03T23:52:36.495Z,99.50
2018-07-03T23:55:16.312Z,99.80
2018-07-03T23:57:56.166Z,99.90
